sensor_id;sensor_type;location;lat;lon;timestamp;P1;P2;P0
74432;PMS7003;62865;53.146;23.172;2022-09-09T00:03:36;1.7;1.3;0.7
74432;PMS7003;62865;53.146;23.172;2022-09-09T00:09:07;2.3;1.8;0.8
74432;PMS7003;62865;53.146;23.172;2022-09-09T00:13:52;2.2;1.8;1.2
74432;PMS7003;62865;53.146;23.172;2022-09-09T00:18:49;2;1.2;1
74432;PMS7003;62865;53.146;23.172;2022-09-09T00:23:40;1.8;1.4;0.8
74432;PMS7003;62865;53.146;23.172;2022-09-09T00:28:36;1;1;1
74432;PMS7003;62865;53.146;23.172;2022-09-09T00:33:24;2;2;1
74432;PMS7003;62865;53.146;23.172;2022-09-09T00:38:32;1;1;1
74432;PMS7003;62865;53.146;23.172;2022-09-09T00:54:59;2.3;1;0.7
74432;PMS7003;62865;53.146;23.172;2022-09-09T00:58:56;3.7;2.3;1.3
74432;PMS7003;62865;53.146;23.172;2022-09-09T01:03:35;3.7;2.3;1.3
74432;PMS7003;62865;53.146;23.172;2022-09-09T01:14:01;3.7;2.3;1.3
74432;PMS7003;62865;53.146;23.172;2022-09-09T01:18:36;2.5;1.8;1
74432;PMS7003;62865;53.146;23.172;2022-09-09T01:23:37;2.6;2;1.2
74432;PMS7003;62865;53.146;23.172;2022-09-09T01:28:25;1;1;1
74432;PMS7003;62865;53.146;23.172;2022-09-09T01:33:49;2;1.5;1
74432;PMS7003;62865;53.146;23.172;2022-09-09T01:38:43;1.2;1.2;0.8
74432;PMS7003;62865;53.146;23.172;2022-09-09T01:43:54;1.7;1.3;0.7
74432;PMS7003;62865;53.146;23.172;2022-09-09T01:48:48;2.4;2;1
74432;PMS7003;62865;53.146;23.172;2022-09-09T01:53:38;2.3;2;1.3
74432;PMS7003;62865;53.146;23.172;2022-09-09T02:03:57;2.2;2;1.2
74432;PMS7003;62865;53.146;23.172;2022-09-09T02:08:55;2;2;1.3
74432;PMS7003;62865;53.146;23.172;2022-09-09T02:13:37;2.5;2.5;2
74432;PMS7003;62865;53.146;23.172;2022-09-09T02:18:34;4;4;1.5
74432;PMS7003;62865;53.146;23.172;2022-09-09T02:24:00;5;4;3
74432;PMS7003;62865;53.146;23.172;2022-09-09T02:29:01;5.7;3.7;2.7
74432;PMS7003;62865;53.146;23.172;2022-09-09T02:33:23;6.3;4.3;3.3
74432;PMS7003;62865;53.146;23.172;2022-09-09T02:38:57;4.7;4.7;3.3
74432;PMS7003;62865;53.146;23.172;2022-09-09T02:44:00;4.7;4.7;3.3
74432;PMS7003;62865;53.146;23.172;2022-09-09T02:49:09;7;6;4
74432;PMS7003;62865;53.146;23.172;2022-09-09T02:53:32;3;3;3
74432;PMS7003;62865;53.146;23.172;2022-09-09T02:58:41;6.5;6;3.5
74432;PMS7003;62865;53.146;23.172;2022-09-09T03:03:31;5;5;4
74432;PMS7003;62865;53.146;23.172;2022-09-09T03:08:21;6.5;6;4
74432;PMS7003;62865;53.146;23.172;2022-09-09T03:13:41;7;6;5
74432;PMS7003;62865;53.146;23.172;2022-09-09T03:19:00;7.7;6;4
74432;PMS7003;62865;53.146;23.172;2022-09-09T03:23:48;8.5;6;4
74432;PMS7003;62865;53.146;23.172;2022-09-09T03:28:59;7;5;4
74432;PMS7003;62865;53.146;23.172;2022-09-09T03:33:41;6;6;4
74432;PMS7003;62865;53.146;23.172;2022-09-09T03:38:45;4.8;4.6;3.4
74432;PMS7003;62865;53.146;23.172;2022-09-09T03:43:59;7;5;3
74432;PMS7003;62865;53.146;23.172;2022-09-09T03:48:41;5.7;5.3;3.7
74432;PMS7003;62865;53.146;23.172;2022-09-09T03:53:22;6;6;3
74432;PMS7003;62865;53.146;23.172;2022-09-09T04:03:40;4;4;3
74432;PMS7003;62865;53.146;23.172;2022-09-09T04:08:47;4.3;2.8;2.3
74432;PMS7003;62865;53.146;23.172;2022-09-09T04:13:24;6;4.8;3.2
74432;PMS7003;62865;53.146;23.172;2022-09-09T04:18:51;4;4;3
74432;PMS7003;62865;53.146;23.172;2022-09-09T04:23:49;5.3;4.8;3.3
74432;PMS7003;62865;53.146;23.172;2022-09-09T04:28:41;6.5;5.5;3.5
74432;PMS7003;62865;53.146;23.172;2022-09-09T04:33:51;5;4;2.7
74432;PMS7003;62865;53.146;23.172;2022-09-09T04:39:03;5;4;3
74432;PMS7003;62865;53.146;23.172;2022-09-09T04:43:39;5;5;3
74432;PMS7003;62865;53.146;23.172;2022-09-09T04:48:31;4.5;4.5;3.5
74432;PMS7003;62865;53.146;23.172;2022-09-09T04:54:01;5.4;4.8;2.8
74432;PMS7003;62865;53.146;23.172;2022-09-09T04:58:53;7;6;4
74432;PMS7003;62865;53.146;23.172;2022-09-09T05:04:05;7.2;5.6;4.4
74432;PMS7003;62865;53.146;23.172;2022-09-09T05:08:44;6;5;3.6
74432;PMS7003;62865;53.146;23.172;2022-09-09T05:13:53;8.3;6.3;5
74432;PMS7003;62865;53.146;23.172;2022-09-09T05:19:07;5.3;5.3;3.7
74432;PMS7003;62865;53.146;23.172;2022-09-09T05:23:44;6;4.4;3.4
74432;PMS7003;62865;53.146;23.172;2022-09-09T05:28:43;6.7;5.7;4.2
74432;PMS7003;62865;53.146;23.172;2022-09-09T05:34:01;8.3;7;4.7
74432;PMS7003;62865;53.146;23.172;2022-09-09T05:38:34;7;5.5;3.5
74432;PMS7003;62865;53.146;23.172;2022-09-09T05:43:23;7.3;6;4.8
74432;PMS7003;62865;53.146;23.172;2022-09-09T05:48:44;8.5;7.5;5.5
74432;PMS7003;62865;53.146;23.172;2022-09-09T05:54:05;6.8;6.5;5.3
74432;PMS7003;62865;53.146;23.172;2022-09-09T05:59:05;7.7;6.7;4.7
74432;PMS7003;62865;53.146;23.172;2022-09-09T06:04:05;7.2;7.2;5.4
74432;PMS7003;62865;53.146;23.172;2022-09-09T06:09:04;8;7;4.3
74432;PMS7003;62865;53.146;23.172;2022-09-09T06:14:06;9;7;4
74432;PMS7003;62865;53.146;23.172;2022-09-09T06:19:05;9.8;8.8;6.8
74432;PMS7003;62865;53.146;23.172;2022-09-09T06:23:44;9;8;6
74432;PMS7003;62865;53.146;23.172;2022-09-09T06:28:23;10.6;8.8;6.2
74432;PMS7003;62865;53.146;23.172;2022-09-09T06:34:06;11.3;9.5;7
74432;PMS7003;62865;53.146;23.172;2022-09-09T06:38:53;11.3;10;7
74432;PMS7003;62865;53.146;23.172;2022-09-09T06:43:44;10.5;10;6.5
74432;PMS7003;62865;53.146;23.172;2022-09-09T06:48:56;12.3;10.5;7.8
74432;PMS7003;62865;53.146;23.172;2022-09-09T06:53:56;13.5;11;8
74432;PMS7003;62865;53.146;23.172;2022-09-09T06:58:44;13.8;12.2;9
74432;PMS7003;62865;53.146;23.172;2022-09-09T07:03:54;15.3;11.7;7.7
74432;PMS7003;62865;53.146;23.172;2022-09-09T07:09:07;14;12.7;9
74432;PMS7003;62865;53.146;23.172;2022-09-09T07:13:33;15.3;13.3;9
74432;PMS7003;62865;53.146;23.172;2022-09-09T07:18:33;16.5;16;10
74432;PMS7003;62865;53.146;23.172;2022-09-09T07:24:07;18.7;16;11
74432;PMS7003;62865;53.146;23.172;2022-09-09T07:28:57;17;16;10
74432;PMS7003;62865;53.146;23.172;2022-09-09T07:34:09;16;14.3;10.3
74432;PMS7003;62865;53.146;23.172;2022-09-09T07:38:44;19;15;10.8
74432;PMS7003;62865;53.146;23.172;2022-09-09T07:43:55;19;17;12
74432;PMS7003;62865;53.146;23.172;2022-09-09T07:49:07;19.4;16.4;11.4
74432;PMS7003;62865;53.146;23.172;2022-09-09T07:53:44;21.5;19.3;13
74432;PMS7003;62865;53.146;23.172;2022-09-09T07:58:45;19.5;17.5;10.8
74432;PMS7003;62865;53.146;23.172;2022-09-09T08:04:02;21;19.3;13.3
74432;PMS7003;62865;53.146;23.172;2022-09-09T08:08:34;20.3;18.5;13
74432;PMS7003;62865;53.146;23.172;2022-09-09T08:13:45;23.5;20;12.5
74432;PMS7003;62865;53.146;23.172;2022-09-09T08:18:33;24.5;22;13
74432;PMS7003;62865;53.146;23.172;2022-09-09T08:24:08;23;21;11
74432;PMS7003;62865;53.146;23.172;2022-09-09T08:29:06;25.5;22.5;16
74432;PMS7003;62865;53.146;23.172;2022-09-09T08:33:43;25.5;22.5;16
74432;PMS7003;62865;53.146;23.172;2022-09-09T08:38:42;31;29;15
74432;PMS7003;62865;53.146;23.172;2022-09-09T08:49:23;30;26;16
74432;PMS7003;62865;53.146;23.172;2022-09-09T08:53:38;31;28;18
74432;PMS7003;62865;53.146;23.172;2022-09-09T08:58:34;31;28;18
74432;PMS7003;62865;53.146;23.172;2022-09-09T09:03:53;23.5;20;14.5
74432;PMS7003;62865;53.146;23.172;2022-09-09T09:09:01;31;26.5;16.5
74432;PMS7003;62865;53.146;23.172;2022-09-09T09:13:51;27.8;26.3;16.3
74432;PMS7003;62865;53.146;23.172;2022-09-09T09:18:57;28.3;25.7;17
74432;PMS7003;62865;53.146;23.172;2022-09-09T09:23:56;23.8;21.8;14.6
74432;PMS7003;62865;53.146;23.172;2022-09-09T09:28:54;27;22.3;15.3
74432;PMS7003;62865;53.146;23.172;2022-09-09T09:33:57;25.8;24.5;15.5
74432;PMS7003;62865;53.146;23.172;2022-09-09T09:39:05;26.8;23.8;16.2
74432;PMS7003;62865;53.146;23.172;2022-09-09T09:43:34;21.4;19.4;12.4
74432;PMS7003;62865;53.146;23.172;2022-09-09T09:48:24;29;25;14.8
74432;PMS7003;62865;53.146;23.172;2022-09-09T09:53:32;28;24.8;16
74432;PMS7003;62865;53.146;23.172;2022-09-09T09:59:10;31;26.7;17
74432;PMS7003;62865;53.146;23.172;2022-09-09T10:04:21;27;23;15
74432;PMS7003;62865;53.146;23.172;2022-09-09T10:08:44;28;26;16
74432;PMS7003;62865;53.146;23.172;2022-09-09T10:14:08;27;24;14.7
74432;PMS7003;62865;53.146;23.172;2022-09-09T10:19:47;26.8;23.8;16
74432;PMS7003;62865;53.146;23.172;2022-09-09T10:23:49;25.8;21.3;14
74432;PMS7003;62865;53.146;23.172;2022-09-09T10:29:17;30;25.3;16
74432;PMS7003;62865;53.146;23.172;2022-09-09T10:33:49;27;20;13
74432;PMS7003;62865;53.146;23.172;2022-09-09T10:38:36;27;20;13
74432;PMS7003;62865;53.146;23.172;2022-09-09T10:44:11;28;25.5;15.5
74432;PMS7003;62865;53.146;23.172;2022-09-09T10:48:53;27.3;23.8;16.3
74432;PMS7003;62865;53.146;23.172;2022-09-09T10:54:16;27.3;23.8;16.3
74432;PMS7003;62865;53.146;23.172;2022-09-09T10:58:53;26;22.4;13.6
74432;PMS7003;62865;53.146;23.172;2022-09-09T11:04:00;27.2;23.8;14.8
74432;PMS7003;62865;53.146;23.172;2022-09-09T11:08:57;30.5;26.3;17.3
74432;PMS7003;62865;53.146;23.172;2022-09-09T11:13:57;30;26;15
74432;PMS7003;62865;53.146;23.172;2022-09-09T11:23:27;30;26;15
74432;PMS7003;62865;53.146;23.172;2022-09-09T11:39:00;29.3;27;16.7
74432;PMS7003;62865;53.146;23.172;2022-09-09T11:43:45;27.5;26.5;16
74432;PMS7003;62865;53.146;23.172;2022-09-09T11:48:59;27.5;26.5;16
74432;PMS7003;62865;53.146;23.172;2022-09-09T11:53:54;23.7;20.3;14
74432;PMS7003;62865;53.146;23.172;2022-09-09T11:58:58;25.3;21.8;13
74432;PMS7003;62865;53.146;23.172;2022-09-09T12:04:11;26;21.5;14
74432;PMS7003;62865;53.146;23.172;2022-09-09T12:09:06;27;24.7;16.3
74432;PMS7003;62865;53.146;23.172;2022-09-09T12:13:23;27;24.7;16.3
74432;PMS7003;62865;53.146;23.172;2022-09-09T12:18:36;44;34;20
74432;PMS7003;62865;53.146;23.172;2022-09-09T12:23:35;28;27;17
74432;PMS7003;62865;53.146;23.172;2022-09-09T12:29:14;25;22;15
74432;PMS7003;62865;53.146;23.172;2022-09-09T12:33:53;24.5;19.3;13
74432;PMS7003;62865;53.146;23.172;2022-09-09T12:38:41;25;21.7;14.3
74432;PMS7003;62865;53.146;23.172;2022-09-09T12:44:06;22.3;20.5;12.8
74432;PMS7003;62865;53.146;23.172;2022-09-09T12:48:53;21.5;20;14
74432;PMS7003;62865;53.146;23.172;2022-09-09T12:53:42;24;19;14
74432;PMS7003;62865;53.146;23.172;2022-09-09T12:58:44;20;17.7;11.7
74432;PMS7003;62865;53.146;23.172;2022-09-09T13:03:42;22;18;12
74432;PMS7003;62865;53.146;23.172;2022-09-09T13:08:21;16.5;15;10.5
74432;PMS7003;62865;53.146;23.172;2022-09-09T13:13:23;22;20;13
74432;PMS7003;62865;53.146;23.172;2022-09-09T13:18:43;22;18;14
74432;PMS7003;62865;53.146;23.172;2022-09-09T13:23:49;24;22;13
74432;PMS7003;62865;53.146;23.172;2022-09-09T13:29:14;24;22;13
74432;PMS7003;62865;53.146;23.172;2022-09-09T13:38:56;20.5;18;11.5
74432;PMS7003;62865;53.146;23.172;2022-09-09T13:44:24;22.4;17;12.2
74432;PMS7003;62865;53.146;23.172;2022-09-09T13:54:05;24;22;13
74432;PMS7003;62865;53.146;23.172;2022-09-09T13:58:45;24;20.5;14.5
74432;PMS7003;62865;53.146;23.172;2022-09-09T14:04:04;22;20.5;13.8
74432;PMS7003;62865;53.146;23.172;2022-09-09T14:09:10;20.5;18.5;12
74432;PMS7003;62865;53.146;23.172;2022-09-09T14:18:48;24;21;14
74432;PMS7003;62865;53.146;23.172;2022-09-09T14:23:58;26.7;23.3;16
74432;PMS7003;62865;53.146;23.172;2022-09-09T14:28:52;27.3;25.3;15
74432;PMS7003;62865;53.146;23.172;2022-09-09T14:33:23;24.3;21.3;14.3
74432;PMS7003;62865;53.146;23.172;2022-09-09T14:38:56;26.7;23;14.3
74432;PMS7003;62865;53.146;23.172;2022-09-09T14:44:07;27.7;25.3;16.7
74432;PMS7003;62865;53.146;23.172;2022-09-09T14:48:34;24.4;21.6;14.2
74432;PMS7003;62865;53.146;23.172;2022-09-09T14:53:34;25.8;23;14.2
74432;PMS7003;62865;53.146;23.172;2022-09-09T14:59:06;23.5;21.3;13.5
74432;PMS7003;62865;53.146;23.172;2022-09-09T15:03:42;27;24.5;16
74432;PMS7003;62865;53.146;23.172;2022-09-09T15:09:04;29;26.3;15.5
74432;PMS7003;62865;53.146;23.172;2022-09-09T15:13:40;26.8;23.2;14.6
74432;PMS7003;62865;53.146;23.172;2022-09-09T15:18:56;25.5;19.8;13.3
74432;PMS7003;62865;53.146;23.172;2022-09-09T15:24:06;25.3;22.7;17
74432;PMS7003;62865;53.146;23.172;2022-09-09T15:28:44;26.7;24;15.3
74432;PMS7003;62865;53.146;23.172;2022-09-09T15:33:47;26;24;17
74432;PMS7003;62865;53.146;23.172;2022-09-09T15:38:24;28.5;23.5;13.5
74432;PMS7003;62865;53.146;23.172;2022-09-09T15:43:43;24.5;22;15.5
74432;PMS7003;62865;53.146;23.172;2022-09-09T15:48:48;27;24;16
74432;PMS7003;62865;53.146;23.172;2022-09-09T15:53:34;28;24.3;14.7
74432;PMS7003;62865;53.146;23.172;2022-09-09T15:59:10;28;24.3;14.7
74432;PMS7003;62865;53.146;23.172;2022-09-09T16:04:10;25.7;23.7;14
74432;PMS7003;62865;53.146;23.172;2022-09-09T16:08:43;28.3;24.5;15.8
74432;PMS7003;62865;53.146;23.172;2022-09-09T16:14:08;24.8;22;14
74432;PMS7003;62865;53.146;23.172;2022-09-09T16:19:11;23;20.7;13.7
74432;PMS7003;62865;53.146;23.172;2022-09-09T16:24:09;20.8;17.8;12.2
74432;PMS7003;62865;53.146;23.172;2022-09-09T16:28:24;19.6;17.4;11.6
74432;PMS7003;62865;53.146;23.172;2022-09-09T16:33:24;23;19;12.5
74432;PMS7003;62865;53.146;23.172;2022-09-09T16:39:09;17.5;16;10.5
74432;PMS7003;62865;53.146;23.172;2022-09-09T16:43:59;16.7;16.3;11.7
74432;PMS7003;62865;53.146;23.172;2022-09-09T16:48:32;20;17;11.7
74432;PMS7003;62865;53.146;23.172;2022-09-09T16:53:24;20;17;11.7
74432;PMS7003;62865;53.146;23.172;2022-09-09T16:58:53;19;17;12
74432;PMS7003;62865;53.146;23.172;2022-09-09T17:03:34;18.3;16;11.5
74432;PMS7003;62865;53.146;23.172;2022-09-09T17:08:56;17;14.5;9.8
74432;PMS7003;62865;53.146;23.172;2022-09-09T17:14:11;18;15;10
74432;PMS7003;62865;53.146;23.172;2022-09-09T17:18:34;15.5;12.5;9
74432;PMS7003;62865;53.146;23.172;2022-09-09T17:23:24;15;14;9.5
74432;PMS7003;62865;53.146;23.172;2022-09-09T17:29:08;17.5;14.5;10
74432;PMS7003;62865;53.146;23.172;2022-09-09T17:33:26;20;16;10
74432;PMS7003;62865;53.146;23.172;2022-09-09T17:39:08;16;13.5;9
74432;PMS7003;62865;53.146;23.172;2022-09-09T17:43:32;14.7;13;9
74432;PMS7003;62865;53.146;23.172;2022-09-09T17:49:11;14.7;12.3;8
74432;PMS7003;62865;53.146;23.172;2022-09-09T17:53:57;16;11;9
74432;PMS7003;62865;53.146;23.172;2022-09-09T17:58:44;8;7;4.5
74432;PMS7003;62865;53.146;23.172;2022-09-09T18:03:34;12.3;10.7;8
74432;PMS7003;62865;53.146;23.172;2022-09-09T18:08:34;12.3;10.7;8
74432;PMS7003;62865;53.146;23.172;2022-09-09T18:13:42;12;9.5;6.5
74432;PMS7003;62865;53.146;23.172;2022-09-09T18:18:34;9.5;8.5;6
74432;PMS7003;62865;53.146;23.172;2022-09-09T18:24:00;10.7;9;7
74432;PMS7003;62865;53.146;23.172;2022-09-09T18:29:11;11.7;10.3;6
74432;PMS7003;62865;53.146;23.172;2022-09-09T18:33:56;13.7;11.7;7.3
74432;PMS7003;62865;53.146;23.172;2022-09-09T18:38:50;12;11.7;8
74432;PMS7003;62865;53.146;23.172;2022-09-09T18:43:42;13.7;11.3;8
74432;PMS7003;62865;53.146;23.172;2022-09-09T18:48:52;11;10.7;7.3
74432;PMS7003;62865;53.146;23.172;2022-09-09T18:54:10;16;14;8.3
74432;PMS7003;62865;53.146;23.172;2022-09-09T18:58:32;12.8;12;8
74432;PMS7003;62865;53.146;23.172;2022-09-09T19:03:54;14.3;12.7;8.7
74432;PMS7003;62865;53.146;23.172;2022-09-09T19:08:33;13;12;9
74432;PMS7003;62865;53.146;23.172;2022-09-09T19:13:59;15;12.7;8.3
74432;PMS7003;62865;53.146;23.172;2022-09-09T19:18:22;16.5;13.5;9
74432;PMS7003;62865;53.146;23.172;2022-09-09T19:24:00;15;13;8.5
74432;PMS7003;62865;53.146;23.172;2022-09-09T19:28:52;12.4;11.2;7.8
74432;PMS7003;62865;53.146;23.172;2022-09-09T19:33:52;13.3;12;7.7
74432;PMS7003;62865;53.146;23.172;2022-09-09T19:38:54;11;9.5;6.5
74432;PMS7003;62865;53.146;23.172;2022-09-09T19:44:07;12.5;10.5;7.8
74432;PMS7003;62865;53.146;23.172;2022-09-09T19:48:22;11.5;10.3;7.3
74432;PMS7003;62865;53.146;23.172;2022-09-09T19:53:43;12.5;10.5;7.5
74432;PMS7003;62865;53.146;23.172;2022-09-09T19:58:46;11.3;9.3;6.7
74432;PMS7003;62865;53.146;23.172;2022-09-09T20:03:56;14.8;12.8;8.4
74432;PMS7003;62865;53.146;23.172;2022-09-09T20:09:06;11.3;9.7;6.3
74432;PMS7003;62865;53.146;23.172;2022-09-09T20:13:40;11.8;10.3;7.3
74432;PMS7003;62865;53.146;23.172;2022-09-09T20:19:08;13.5;13;8.5
74432;PMS7003;62865;53.146;23.172;2022-09-09T20:23:58;12.3;12;8
74432;PMS7003;62865;53.146;23.172;2022-09-09T20:28:42;14;12.2;8.6
74432;PMS7003;62865;53.146;23.172;2022-09-09T20:33:48;15;12.2;8.8
74432;PMS7003;62865;53.146;23.172;2022-09-09T20:38:24;14.4;11.8;8.2
74432;PMS7003;62865;53.146;23.172;2022-09-09T20:43:47;14;11.7;8.7
74432;PMS7003;62865;53.146;23.172;2022-09-09T20:48:32;15.3;14.7;9.7
74432;PMS7003;62865;53.146;23.172;2022-09-09T20:54:05;14;12.5;8.3
74432;PMS7003;62865;53.146;23.172;2022-09-09T20:59:11;14.5;12.5;9
74432;PMS7003;62865;53.146;23.172;2022-09-09T21:03:46;13.5;12;9.5
74432;PMS7003;62865;53.146;23.172;2022-09-09T21:08:22;15;14;8.8
74432;PMS7003;62865;53.146;23.172;2022-09-09T21:13:40;15;14;8.8
74432;PMS7003;62865;53.146;23.172;2022-09-09T21:18:50;11;11;9
74432;PMS7003;62865;53.146;23.172;2022-09-09T21:24:08;11.7;11.3;8
74432;PMS7003;62865;53.146;23.172;2022-09-09T21:28:56;14.3;12.8;9
74432;PMS7003;62865;53.146;23.172;2022-09-09T21:33:24;12.5;12;9
74432;PMS7003;62865;53.146;23.172;2022-09-09T21:38:24;15.5;12.5;9.5
74432;PMS7003;62865;53.146;23.172;2022-09-09T21:43:58;16;15.7;10
74432;PMS7003;62865;53.146;23.172;2022-09-09T21:48:48;14;14;10
74432;PMS7003;62865;53.146;23.172;2022-09-09T21:58:54;14;14;10
74432;PMS7003;62865;53.146;23.172;2022-09-09T22:03:52;15.4;13.4;9.2
74432;PMS7003;62865;53.146;23.172;2022-09-09T22:08:44;14.7;14.3;9.3
74432;PMS7003;62865;53.146;23.172;2022-09-09T22:13:58;14.8;13.3;9.8
74432;PMS7003;62865;53.146;23.172;2022-09-09T22:19:08;14;14;10
74432;PMS7003;62865;53.146;23.172;2022-09-09T22:23:24;15;13.5;10
74432;PMS7003;62865;53.146;23.172;2022-09-09T22:28:42;18;16.5;11
74432;PMS7003;62865;53.146;23.172;2022-09-09T22:34:00;13;12;9
74432;PMS7003;62865;53.146;23.172;2022-09-09T22:38:56;20;15;11
74432;PMS7003;62865;53.146;23.172;2022-09-09T22:44:06;13;12;9
74432;PMS7003;62865;53.146;23.172;2022-09-09T22:48:42;16.3;13.8;9.5
74432;PMS7003;62865;53.146;23.172;2022-09-09T22:53:40;15.8;13.3;9
74432;PMS7003;62865;53.146;23.172;2022-09-09T22:59:06;19;17;10
74432;PMS7003;62865;53.146;23.172;2022-09-09T23:03:24;13;12;10
74432;PMS7003;62865;53.146;23.172;2022-09-09T23:08:42;15.5;13.5;9
74432;PMS7003;62865;53.146;23.172;2022-09-09T23:13:24;16;15;10
74432;PMS7003;62865;53.146;23.172;2022-09-09T23:18:24;17.7;15.3;9.7
74432;PMS7003;62865;53.146;23.172;2022-09-09T23:23:50;15.6;13.8;9.6
74432;PMS7003;62865;53.146;23.172;2022-09-09T23:28:48;15.6;13.8;9.6
74432;PMS7003;62865;53.146;23.172;2022-09-09T23:33:59;17.3;15.7;10.7
74432;PMS7003;62865;53.146;23.172;2022-09-09T23:39:06;17.3;15.7;10.7
74432;PMS7003;62865;53.146;23.172;2022-09-09T23:43:52;28;23;13
74432;PMS7003;62865;53.146;23.172;2022-09-09T23:48:56;19;17;11
74432;PMS7003;62865;53.146;23.172;2022-09-09T23:54:08;21.5;17;11.5
74432;PMS7003;62865;53.146;23.172;2022-09-09T23:59:08;17;16;11
